Time;durP1;ratioP1;P1;durP2;ratioP2;P2;SDS_P1;SDS_P2;PMS_P1;PMS_P2;Temp;Humidity;BMP_temperature;BMP_pressure;BME280_temperature;BME280_humidity;BME280_pressure;Samples;Min_cycle;Max_cycle;Signal;HPM_P1;HPM_P2
2023/12/09 00:01:22;;;;;;;9.52;4.65;;;7.60;99.90;;;;;;5139772;27;20038;-73
2023/12/09 00:03:48;;;;;;;9.68;4.10;;;7.60;99.90;;;;;;5139501;27;20012;-74
2023/12/09 00:06:13;;;;;;;8.43;4.18;;;7.70;99.90;;;;;;5139647;27;20126;-73
2023/12/09 00:08:39;;;;;;;8.45;4.25;;;7.70;99.90;;;;;;5139257;27;20511;-73
2023/12/09 00:11:05;;;;;;;6.50;4.00;;;7.70;99.90;;;;;;5139489;27;20051;-73
2023/12/09 00:13:33;;;;;;;8.65;4.00;;;7.60;99.90;;;;;;5139387;27;20098;-73
2023/12/09 00:15:59;;;;;;;11.60;4.97;;;7.60;99.90;;;;;;5117786;27;20401;-73
2023/12/09 00:18:25;;;;;;;8.52;4.10;;;7.50;99.90;;;;;;5139367;27;20019;-73
2023/12/09 00:20:51;;;;;;;8.13;4.10;;;7.40;99.90;;;;;;5133177;27;20429;-73
2023/12/09 00:23:16;;;;;;;11.13;4.32;;;7.40;99.90;;;;;;5139099;27;20021;-74
2023/12/09 00:25:42;;;;;;;9.13;4.35;;;7.30;99.90;;;;;;5139070;27;20425;-74
2023/12/09 00:28:08;;;;;;;13.00;4.05;;;7.20;99.90;;;;;;5139050;27;20094;-73
2023/12/09 00:30:33;;;;;;;6.78;4.20;;;7.20;99.90;;;;;;5138988;27;20055;-73
2023/12/09 00:32:59;;;;;;;15.05;4.10;;;7.20;99.90;;;;;;5138688;27;20102;-73
2023/12/09 00:35:25;;;;;;;9.50;4.07;;;7.10;99.90;;;;;;5138665;27;20027;-73
2023/12/09 00:37:50;;;;;;;5.60;3.88;;;7.00;99.90;;;;;;5138942;27;20034;-72
2023/12/09 00:40:17;;;;;;;11.77;4.43;;;7.00;99.90;;;;;;5138714;27;20039;-74
2023/12/09 00:42:43;;;;;;;8.93;4.50;;;7.00;99.90;;;;;;5138746;27;20471;-73
2023/12/09 00:45:09;;;;;;;12.15;4.63;;;6.80;99.90;;;;;;5138956;27;20424;-73
2023/12/09 00:47:34;;;;;;;6.22;4.22;;;6.90;99.90;;;;;;5138905;27;20054;-73
2023/12/09 00:50:00;;;;;;;11.10;4.93;;;6.90;99.90;;;;;;5138860;27;20031;-73
2023/12/09 00:52:26;;;;;;;21.30;4.47;;;6.80;99.90;;;;;;5138525;27;20027;-73
2023/12/09 00:54:52;;;;;;;10.02;5.45;;;6.80;99.90;;;;;;5138437;27;20070;-72
2023/12/09 00:57:19;;;;;;;9.00;4.20;;;7.00;99.90;;;;;;5113331;28;20023;-73
2023/12/09 00:59:44;;;;;;;5.97;3.67;;;7.20;99.90;;;;;;5131581;27;20023;-74
2023/12/09 01:02:10;;;;;;;5.55;3.53;;;7.00;99.90;;;;;;5138324;27;20026;-73
2023/12/09 01:04:35;;;;;;;9.38;4.43;;;7.00;99.90;;;;;;5138327;27;20149;-72
2023/12/09 01:07:01;;;;;;;7.05;4.13;;;6.90;99.90;;;;;;5138162;27;20136;-73
2023/12/09 01:09:27;;;;;;;9.40;4.30;;;6.90;99.90;;;;;;5138262;27;20026;-73
2023/12/09 01:11:52;;;;;;;7.10;3.90;;;6.90;99.90;;;;;;5137947;27;20494;-73
2023/12/09 01:14:18;;;;;;;10.10;4.25;;;6.80;99.90;;;;;;5138338;27;20714;-73
2023/12/09 01:16:44;;;;;;;9.32;3.78;;;6.70;99.90;;;;;;5119568;27;20031;-73
2023/12/09 01:19:09;;;;;;;8.55;3.78;;;6.90;99.90;;;;;;5131982;27;20428;-73
2023/12/09 01:21:35;;;;;;;6.97;3.92;;;6.90;99.90;;;;;;5119273;27;20533;-74
2023/12/09 01:24:01;;;;;;;9.88;4.13;;;6.70;99.90;;;;;;5138134;27;20083;-73
2023/12/09 01:26:26;;;;;;;11.63;4.53;;;6.80;99.90;;;;;;5137701;27;20019;-73
2023/12/09 01:28:52;;;;;;;7.68;4.20;;;6.90;99.90;;;;;;5137919;27;20054;-73
2023/12/09 01:31:17;;;;;;;6.60;3.53;;;6.90;99.90;;;;;;5137635;27;20027;-73
2023/12/09 01:33:43;;;;;;;6.95;4.43;;;7.10;99.90;;;;;;5137989;27;20023;-73
2023/12/09 01:36:09;;;;;;;14.95;4.55;;;7.20;99.90;;;;;;5137696;27;20023;-73
2023/12/09 01:38:35;;;;;;;8.52;4.05;;;7.30;99.90;;;;;;5115669;28;20035;-73
2023/12/09 01:41:01;;;;;;;10.38;3.80;;;7.30;99.90;;;;;;5133251;27;20022;-73
2023/12/09 01:43:26;;;;;;;14.55;4.55;;;7.30;99.90;;;;;;5129652;27;20050;-74
2023/12/09 01:46:10;;;;;;;6.32;3.50;;;7.20;99.90;;;;;;5136590;27;20487;-73
2023/12/09 01:48:40;;;;;;;10.65;4.43;;;7.20;99.90;;;;;;5137561;27;20037;-73
2023/12/09 01:51:07;;;;;;;8.23;4.28;;;7.10;99.90;;;;;;5137460;27;20046;-73
2023/12/09 01:53:35;;;;;;;10.15;3.75;;;7.20;99.90;;;;;;5137255;27;20039;-73
2023/12/09 01:56:03;;;;;;;9.30;3.83;;;7.10;99.90;;;;;;5118736;27;20111;-73
2023/12/09 01:58:30;;;;;;;7.63;5.07;;;7.00;99.90;;;;;;5137277;27;20118;-73
2023/12/09 02:00:56;;;;;;;4.93;3.67;;;7.10;99.90;;;;;;5118798;27;20019;-73
2023/12/09 02:03:21;;;;;;;7.60;4.00;;;7.00;99.90;;;;;;5118152;27;20027;-73
2023/12/09 02:05:47;;;;;;;7.22;3.65;;;6.90;99.90;;;;;;5137369;27;20390;-73
2023/12/09 02:08:13;;;;;;;4.88;3.28;;;6.90;99.90;;;;;;5117964;27;20028;-73
2023/12/09 02:10:39;;;;;;;8.57;4.25;;;6.70;99.90;;;;;;5136892;27;20026;-73
2023/12/09 02:13:12;;;;;;;11.25;4.90;;;6.60;99.90;;;;;;5136944;27;20027;-74
2023/12/09 02:16:03;;;;;;;10.13;3.70;;;6.70;99.90;;;;;;5136953;27;20027;-73
2023/12/09 02:18:30;;;;;;;10.57;4.60;;;6.70;99.90;;;;;;5129532;27;20028;-73
2023/12/09 02:20:56;;;;;;;8.07;4.00;;;6.60;99.90;;;;;;5112396;27;20019;-74
2023/12/09 02:23:21;;;;;;;7.07;3.83;;;6.50;99.90;;;;;;5136652;27;20421;-73
2023/12/09 02:25:50;;;;;;;9.85;4.22;;;6.40;99.90;;;;;;5136737;27;20020;-73
2023/12/09 02:28:20;;;;;;;14.65;3.97;;;6.30;99.90;;;;;;5136745;27;20015;-73
2023/12/09 02:31:09;;;;;;;5.85;3.42;;;6.20;99.90;;;;;;5136863;27;20023;-73
2023/12/09 02:33:35;;;;;;;6.35;4.05;;;6.00;99.90;;;;;;5109642;27;20494;-73
2023/12/09 02:36:03;;;;;;;6.32;3.85;;;6.00;99.90;;;;;;5136649;27;20034;-73
2023/12/09 02:38:31;;;;;;;11.45;3.95;;;5.90;99.90;;;;;;5114891;28;20023;-73
2023/12/09 02:40:58;;;;;;;8.95;4.53;;;5.80;99.90;;;;;;5135310;27;20014;-73
2023/12/09 02:43:24;;;;;;;6.38;3.72;;;5.80;99.90;;;;;;5118453;27;20032;-73
2023/12/09 02:45:49;;;;;;;4.97;4.43;;;5.80;99.90;;;;;;5136492;27;20020;-73
2023/12/09 02:48:15;;;;;;;7.75;3.75;;;5.80;99.90;;;;;;5136560;27;20030;-73
2023/12/09 02:50:41;;;;;;;13.43;3.95;;;5.80;99.90;;;;;;5136398;27;20514;-73
2023/12/09 02:53:06;;;;;;;10.25;3.92;;;5.80;99.90;;;;;;5136270;27;20074;-73
2023/12/09 02:55:32;;;;;;;7.40;4.20;;;5.80;99.90;;;;;;5136253;27;20027;-74
2023/12/09 02:57:58;;;;;;;9.30;3.95;;;5.80;99.90;;;;;;5136322;27;20027;-73
2023/12/09 03:00:24;;;;;;;10.45;4.38;;;5.80;99.90;;;;;;5116251;28;20031;-73
2023/12/09 03:02:49;;;;;;;8.88;3.95;;;5.70;99.90;;;;;;5114576;28;20032;-74
2023/12/09 03:05:15;;;;;;;11.77;4.20;;;5.60;99.90;;;;;;5135466;28;20019;-73
2023/12/09 03:07:41;;;;;;;6.30;4.28;;;5.60;99.90;;;;;;5136435;28;20055;-73
2023/12/09 03:10:07;;;;;;;7.05;4.05;;;5.50;99.90;;;;;;5136262;28;20027;-73
2023/12/09 03:12:32;;;;;;;9.60;4.10;;;5.50;99.90;;;;;;5136367;28;20031;-73
2023/12/09 03:14:58;;;;;;;14.02;4.90;;;5.40;99.90;;;;;;5136038;28;20019;-74
2023/12/09 03:17:24;;;;;;;7.68;4.75;;;5.40;99.90;;;;;;5135078;28;20023;-74
2023/12/09 03:19:50;;;;;;;9.13;4.53;;;5.30;99.90;;;;;;5129036;28;20027;-73
2023/12/09 03:22:15;;;;;;;11.15;5.10;;;5.20;99.90;;;;;;5136128;28;20483;-73
2023/12/09 03:24:44;;;;;;;9.00;4.60;;;5.20;99.90;;;;;;5136044;28;20031;-73
2023/12/09 03:27:09;;;;;;;7.57;4.75;;;5.20;99.90;;;;;;5136164;28;20027;-73
2023/12/09 03:29:36;;;;;;;11.02;5.22;;;5.20;99.90;;;;;;5116834;28;20037;-73
2023/12/09 03:32:01;;;;;;;9.95;5.32;;;5.10;99.90;;;;;;5130440;28;20552;-73
2023/12/09 03:34:27;;;;;;;10.65;4.78;;;5.10;99.90;;;;;;5134327;28;20474;-74
2023/12/09 03:36:53;;;;;;;11.57;5.15;;;5.10;99.90;;;;;;5135878;28;20028;-73
2023/12/09 03:39:19;;;;;;;13.38;5.03;;;5.00;99.90;;;;;;5135905;28;20538;-73
2023/12/09 03:41:44;;;;;;;13.45;5.25;;;5.00;99.90;;;;;;5135483;28;20047;-73
2023/12/09 03:44:10;;;;;;;10.98;4.80;;;4.90;99.90;;;;;;5135931;28;20019;-73
2023/12/09 03:46:35;;;;;;;9.75;4.75;;;4.80;99.90;;;;;;5135937;28;20027;-73
2023/12/09 03:49:02;;;;;;;10.05;5.28;;;4.80;99.90;;;;;;5136017;28;20027;-74
2023/12/09 03:51:27;;;;;;;5.57;4.40;;;4.80;99.90;;;;;;5117494;28;20031;-73
2023/12/09 03:53:54;;;;;;;7.55;4.55;;;4.70;99.90;;;;;;5135675;28;20118;-73
2023/12/09 03:56:21;;;;;;;14.82;5.88;;;4.70;99.90;;;;;;5135760;28;20039;-73
2023/12/09 03:58:47;;;;;;;6.53;4.97;;;4.70;99.90;;;;;;5135628;28;20026;-73
2023/12/09 04:01:13;;;;;;;6.22;5.22;;;4.70;99.90;;;;;;5135736;28;20106;-73
2023/12/09 04:03:39;;;;;;;10.93;5.00;;;4.60;99.90;;;;;;5135766;28;20035;-73
2023/12/09 04:06:05;;;;;;;9.93;5.57;;;4.50;99.90;;;;;;5134639;28;20026;-73
2023/12/09 04:08:31;;;;;;;9.48;4.80;;;4.50;99.90;;;;;;5135896;27;20530;-73
2023/12/09 04:10:57;;;;;;;9.27;5.75;;;4.50;99.90;;;;;;5139332;27;20102;-73
2023/12/09 04:13:22;;;;;;;10.07;5.75;;;4.40;99.90;;;;;;5139367;27;20042;-73
2023/12/09 04:15:48;;;;;;;12.48;5.72;;;4.40;99.90;;;;;;5139302;27;20020;-73
2023/12/09 04:18:14;;;;;;;5.45;4.88;;;4.40;99.90;;;;;;5139359;27;20027;-73
2023/12/09 04:20:39;;;;;;;10.25;5.82;;;4.30;99.90;;;;;;5137099;27;20084;-73
2023/12/09 04:23:05;;;;;;;13.65;5.40;;;4.30;99.90;;;;;;5139248;27;20015;-73
2023/12/09 04:25:31;;;;;;;8.63;5.15;;;4.30;99.90;;;;;;5139021;27;20027;-73
2023/12/09 04:27:57;;;;;;;9.45;5.60;;;4.20;99.90;;;;;;5139208;27;20015;-73
2023/12/09 04:30:23;;;;;;;7.20;5.47;;;4.20;99.90;;;;;;5118144;27;20024;-73
2023/12/09 04:32:48;;;;;;;9.52;6.55;;;4.20;99.90;;;;;;5139166;27;20023;-73
2023/12/09 04:35:14;;;;;;;20.02;7.40;;;4.20;99.90;;;;;;5139231;27;20487;-73
2023/12/09 04:37:40;;;;;;;11.75;8.35;;;4.20;99.90;;;;;;5116791;28;20475;-73
2023/12/09 04:40:10;;;;;;;17.83;7.78;;;4.20;99.90;;;;;;5130576;27;20031;-74
2023/12/09 04:42:36;;;;;;;14.63;8.82;;;4.20;99.90;;;;;;5120337;27;20026;-73
2023/12/09 04:45:02;;;;;;;12.07;7.80;;;4.20;99.90;;;;;;5120421;27;20394;-73
2023/12/09 04:47:28;;;;;;;14.30;8.40;;;4.30;99.90;;;;;;5116732;28;20040;-73
2023/12/09 04:49:54;;;;;;;13.23;8.25;;;4.30;99.90;;;;;;5131557;27;20023;-73
2023/12/09 04:52:20;;;;;;;12.85;9.10;;;4.30;99.90;;;;;;5138595;27;20015;-73
2023/12/09 04:54:45;;;;;;;16.88;8.10;;;4.30;99.90;;;;;;5138419;27;20070;-73
2023/12/09 04:57:11;;;;;;;14.63;7.28;;;4.40;99.90;;;;;;5138436;27;20023;-73
2023/12/09 04:59:37;;;;;;;12.70;8.63;;;4.40;99.90;;;;;;5120225;27;20039;-73
2023/12/09 05:02:03;;;;;;;10.82;7.25;;;4.50;99.90;;;;;;5120075;27;20015;-73
2023/12/09 05:04:29;;;;;;;9.90;6.80;;;4.60;99.90;;;;;;5119959;27;20020;-73
2023/12/09 05:06:54;;;;;;;14.35;7.53;;;4.60;99.90;;;;;;5138406;27;20026;-73
2023/12/09 05:09:22;;;;;;;7.35;6.30;;;4.70;99.90;;;;;;5138436;27;20055;-73
2023/12/09 05:11:48;;;;;;;14.50;7.03;;;4.70;99.90;;;;;;5138311;27;20083;-73
2023/12/09 05:14:14;;;;;;;11.90;7.28;;;4.80;99.90;;;;;;5138349;27;20051;-73
2023/12/09 05:16:40;;;;;;;11.32;7.15;;;4.90;99.90;;;;;;5138214;27;20471;-73
2023/12/09 05:19:06;;;;;;;14.95;7.20;;;4.90;99.90;;;;;;5133096;27;20024;-73
2023/12/09 05:21:32;;;;;;;17.95;7.90;;;4.90;99.90;;;;;;5138039;27;20019;-73
2023/12/09 05:23:58;;;;;;;13.48;7.22;;;5.00;99.90;;;;;;5138117;27;20024;-73
2023/12/09 05:26:28;;;;;;;13.18;6.82;;;4.90;99.90;;;;;;5137807;27;20030;-73
2023/12/09 05:28:55;;;;;;;12.65;6.13;;;5.00;99.90;;;;;;5119495;27;20562;-73
2023/12/09 05:31:21;;;;;;;19.52;6.50;;;5.00;99.90;;;;;;5119191;27;20031;-73
2023/12/09 05:33:48;;;;;;;12.80;6.53;;;5.00;99.90;;;;;;5138009;27;20197;-73
2023/12/09 05:36:13;;;;;;;11.57;6.82;;;5.00;99.90;;;;;;5137760;27;20027;-73
2023/12/09 05:38:40;;;;;;;11.05;7.93;;;5.00;99.90;;;;;;5137727;27;20147;-73
2023/12/09 05:41:06;;;;;;;11.32;6.95;;;5.10;99.90;;;;;;5137518;27;20098;-73
2023/12/09 05:43:32;;;;;;;11.93;6.80;;;5.10;99.90;;;;;;5137830;27;20057;-73
2023/12/09 05:45:57;;;;;;;11.95;6.32;;;5.10;99.90;;;;;;5137657;27;20016;-73
2023/12/09 05:48:23;;;;;;;13.70;6.93;;;5.10;99.90;;;;;;5137624;27;20091;-73
2023/12/09 05:50:49;;;;;;;14.43;6.43;;;5.20;99.90;;;;;;5137639;27;20078;-73
2023/12/09 05:53:14;;;;;;;11.23;7.60;;;5.20;99.90;;;;;;5137517;27;20530;-73
2023/12/09 05:55:40;;;;;;;7.78;5.85;;;5.10;99.90;;;;;;5137509;27;20031;-73
2023/12/09 05:58:06;;;;;;;6.88;5.57;;;5.20;99.90;;;;;;5137683;27;20020;-73
2023/12/09 06:00:32;;;;;;;14.02;6.25;;;5.20;99.90;;;;;;5137195;27;20031;-73
2023/12/09 06:02:57;;;;;;;9.82;6.07;;;5.20;99.90;;;;;;5118929;27;20065;-73
2023/12/09 06:05:23;;;;;;;15.18;7.15;;;5.20;99.90;;;;;;5118684;27;20019;-73
2023/12/09 06:07:49;;;;;;;16.75;6.57;;;5.20;99.90;;;;;;5137374;27;20023;-73
2023/12/09 06:10:15;;;;;;;7.88;6.03;;;5.20;99.90;;;;;;5136777;27;20031;-73
2023/12/09 06:12:40;;;;;;;11.55;7.05;;;5.20;99.90;;;;;;5137271;27;20031;-73
2023/12/09 06:15:06;;;;;;;10.30;7.32;;;5.20;99.90;;;;;;5136878;27;20051;-72
2023/12/09 06:17:33;;;;;;;20.48;10.50;;;5.30;99.90;;;;;;5118474;27;20027;-73
2023/12/09 06:19:59;;;;;;;13.65;9.10;;;5.30;99.90;;;;;;5130059;27;20676;-73
2023/12/09 06:22:25;;;;;;;10.88;6.90;;;5.30;99.90;;;;;;5118685;27;20490;-73
2023/12/09 06:24:51;;;;;;;14.63;5.30;;;5.40;99.90;;;;;;5136653;27;20045;-73
2023/12/09 06:27:17;;;;;;;9.63;5.40;;;5.40;99.90;;;;;;5112597;27;20513;-73
2023/12/09 06:29:46;;;;;;;10.45;6.03;;;5.40;99.90;;;;;;5134480;27;20522;-73
2023/12/09 06:32:13;;;;;;;10.52;6.45;;;5.40;99.90;;;;;;5134787;27;20015;-73
2023/12/09 06:34:39;;;;;;;15.05;6.30;;;5.40;99.90;;;;;;5135655;27;20075;-73
2023/12/09 06:37:05;;;;;;;11.48;6.05;;;5.50;99.90;;;;;;5114825;28;20520;-73
2023/12/09 06:39:30;;;;;;;10.05;5.80;;;5.50;99.90;;;;;;5117895;27;20036;-73
2023/12/09 06:41:56;;;;;;;10.02;5.70;;;5.50;99.90;;;;;;5136686;27;20071;-73
2023/12/09 06:44:22;;;;;;;9.45;6.28;;;5.50;99.90;;;;;;5136686;27;20106;-73
2023/12/09 06:46:47;;;;;;;9.82;6.07;;;5.50;99.90;;;;;;5117878;27;20016;-73
2023/12/09 06:49:13;;;;;;;8.80;5.30;;;5.60;99.90;;;;;;5114532;28;20024;-73
2023/12/09 06:51:41;;;;;;;10.60;6.10;;;5.60;99.90;;;;;;5129275;27;20027;-73
2023/12/09 06:54:06;;;;;;;10.10;6.05;;;5.60;99.90;;;;;;5136198;27;20039;-73
2023/12/09 06:56:32;;;;;;;8.85;5.55;;;5.60;99.90;;;;;;5117841;28;20555;-73
2023/12/09 06:58:58;;;;;;;9.18;6.07;;;5.60;99.90;;;;;;5136274;27;20031;-73
2023/12/09 07:01:26;;;;;;;10.63;6.40;;;5.60;99.90;;;;;;5114894;28;20055;-73
2023/12/09 07:03:52;;;;;;;8.65;6.25;;;5.60;99.90;;;;;;5136334;28;20385;-73
2023/12/09 07:06:26;;;;;;;10.20;6.15;;;5.60;99.90;;;;;;5114666;28;20020;-73
2023/12/09 07:08:53;;;;;;;7.70;5.88;;;5.60;99.90;;;;;;5117987;28;20514;-73
2023/12/09 07:11:22;;;;;;;9.63;5.53;;;5.60;99.90;;;;;;5136318;28;20019;-73
2023/12/09 07:13:49;;;;;;;12.57;6.03;;;5.60;99.90;;;;;;5136405;28;20019;-74
2023/12/09 07:16:15;;;;;;;13.93;5.80;;;5.60;99.90;;;;;;5117473;28;20064;-73
2023/12/09 07:18:46;;;;;;;6.88;5.47;;;5.70;99.90;;;;;;5116610;28;20031;-73
2023/12/09 07:21:12;;;;;;;10.30;5.30;;;5.70;99.90;;;;;;5117681;28;20403;-73
2023/12/09 07:23:38;;;;;;;5.90;4.97;;;5.70;99.90;;;;;;5117792;28;20019;-73
2023/12/09 07:26:04;;;;;;;9.82;5.50;;;5.70;99.90;;;;;;5117209;28;20027;-74
2023/12/09 07:28:29;;;;;;;11.70;5.97;;;5.70;99.90;;;;;;5136015;28;20030;-74
2023/12/09 07:30:55;;;;;;;7.32;5.22;;;5.70;99.90;;;;;;5135789;28;20035;-74
2023/12/09 07:33:21;;;;;;;8.77;5.47;;;5.70;99.90;;;;;;5136075;28;20035;-73
2023/12/09 07:35:47;;;;;;;8.30;5.00;;;5.80;99.90;;;;;;5117617;28;20042;-74
2023/12/09 07:38:13;;;;;;;10.25;6.43;;;5.80;99.90;;;;;;5117600;28;20023;-73
2023/12/09 07:40:38;;;;;;;8.25;5.60;;;5.80;99.90;;;;;;5135330;28;20026;-73
2023/12/09 07:43:04;;;;;;;10.07;5.35;;;5.90;99.90;;;;;;5136028;27;20022;-73
2023/12/09 07:45:30;;;;;;;9.68;5.57;;;5.90;99.90;;;;;;5139725;27;20019;-73
2023/12/09 07:47:56;;;;;;;10.93;5.80;;;6.00;99.90;;;;;;5121679;27;20088;-73
2023/12/09 07:50:22;;;;;;;8.35;5.45;;;6.00;99.90;;;;;;5139836;27;20023;-74
2023/12/09 07:52:47;;;;;;;9.00;5.57;;;6.00;99.90;;;;;;5139616;27;20514;-74
2023/12/09 07:55:13;;;;;;;6.63;5.20;;;6.00;99.90;;;;;;5120902;27;20443;-75
2023/12/09 07:57:39;;;;;;;9.55;5.53;;;6.10;99.90;;;;;;5139896;27;20070;-75
2023/12/09 08:00:05;;;;;;;289.52;168.60;;;6.10;99.90;;;;;;5139471;27;20107;-75
2023/12/09 08:02:31;;;;;;;29.90;18.70;;;6.20;99.90;;;;;;5115179;27;20026;-76
2023/12/09 08:04:56;;;;;;;20.52;12.07;;;6.30;99.90;;;;;;5133776;27;20811;-76
2023/12/09 08:07:22;;;;;;;26.45;15.30;;;6.30;99.90;;;;;;5134771;27;20023;-76
2023/12/09 08:09:48;;;;;;;10.80;9.05;;;6.40;99.90;;;;;;5134679;27;20039;-76
2023/12/09 08:12:13;;;;;;;15.30;9.57;;;6.40;99.90;;;;;;5116214;27;20035;-76
2023/12/09 08:14:39;;;;;;;17.17;14.38;;;6.50;99.90;;;;;;5116450;27;20057;-76
2023/12/09 08:17:05;;;;;;;11.05;8.13;;;6.60;99.90;;;;;;5134291;27;20061;-76
2023/12/09 08:19:30;;;;;;;13.18;7.03;;;6.60;99.90;;;;;;5126820;27;20039;-76
2023/12/09 08:21:56;;;;;;;12.82;7.03;;;6.60;99.90;;;;;;5133236;27;20027;-76
2023/12/09 08:24:22;;;;;;;7.55;5.75;;;6.70;99.90;;;;;;5133465;27;20047;-76
2023/12/09 08:26:47;;;;;;;9.23;7.07;;;6.70;99.90;;;;;;5133574;27;20032;-76
2023/12/09 08:29:14;;;;;;;11.00;6.75;;;6.80;99.90;;;;;;5114234;27;20038;-76
2023/12/09 08:31:49;;;;;;;16.80;9.38;;;6.90;99.90;;;;;;5113330;27;20066;-75
2023/12/09 08:34:18;;;;;;;13.50;10.20;;;7.00;99.90;;;;;;5131617;27;20027;-76
2023/12/09 08:36:44;;;;;;;14.27;9.70;;;7.00;99.90;;;;;;5133253;27;20352;-76
2023/12/09 08:39:09;;;;;;;12.82;9.05;;;7.10;99.90;;;;;;5114071;27;20102;-76
2023/12/09 08:41:35;;;;;;;12.60;10.23;;;7.20;99.90;;;;;;5114979;27;20407;-76
2023/12/09 08:44:03;;;;;;;13.68;10.00;;;7.30;99.90;;;;;;5115034;27;20034;-76
2023/12/09 08:46:29;;;;;;;13.13;8.95;;;7.30;99.90;;;;;;5114565;27;20019;-76
2023/12/09 08:48:54;;;;;;;13.68;7.32;;;7.50;99.90;;;;;;5132970;27;20522;-76
2023/12/09 08:51:20;;;;;;;14.38;6.80;;;7.50;99.90;;;;;;5133231;27;20401;-76
2023/12/09 08:53:46;;;;;;;8.90;6.57;;;7.50;99.90;;;;;;5133088;27;20054;-76
2023/12/09 08:56:11;;;;;;;10.25;6.93;;;7.60;99.90;;;;;;5132358;27;20027;-77
2023/12/09 08:58:37;;;;;;;10.10;6.78;;;7.60;99.90;;;;;;5132225;27;20038;-76
2023/12/09 09:01:03;;;;;;;15.48;7.47;;;7.80;99.90;;;;;;5133011;27;20034;-76
2023/12/09 09:03:29;;;;;;;9.23;6.50;;;7.80;99.90;;;;;;5133058;27;20052;-76
2023/12/09 09:05:55;;;;;;;16.65;6.68;;;7.90;99.90;;;;;;5113365;27;20035;-77
2023/12/09 09:08:20;;;;;;;13.43;6.82;;;8.00;99.90;;;;;;5131886;27;20015;-76
2023/12/09 09:10:46;;;;;;;13.52;6.85;;;8.00;99.90;;;;;;5132689;27;20122;-76
2023/12/09 09:13:12;;;;;;;12.25;6.75;;;8.00;99.90;;;;;;5133123;27;20027;-76
2023/12/09 09:15:38;;;;;;;12.60;8.38;;;8.10;99.90;;;;;;5129800;27;20102;-76
2023/12/09 09:18:04;;;;;;;12.82;9.43;;;8.20;99.90;;;;;;5131565;27;20118;-76
2023/12/09 09:20:29;;;;;;;12.48;7.53;;;8.10;99.90;;;;;;5113550;27;20023;-76
2023/12/09 09:22:55;;;;;;;12.73;6.25;;;8.20;99.90;;;;;;5113876;27;20065;-75
2023/12/09 09:25:20;;;;;;;12.48;7.22;;;8.30;99.90;;;;;;5132422;27;20027;-75
2023/12/09 09:27:47;;;;;;;9.10;6.60;;;8.40;99.90;;;;;;5131659;27;20042;-77
2023/12/09 09:30:13;;;;;;;14.65;7.65;;;8.50;99.90;;;;;;5130900;27;20034;-77
2023/12/09 09:32:39;;;;;;;7.90;5.50;;;8.60;99.90;;;;;;5116179;27;20031;-77
2023/12/09 09:35:05;;;;;;;9.43;6.68;;;8.60;99.90;;;;;;5132721;27;20510;-77
2023/12/09 09:37:31;;;;;;;14.60;8.70;;;8.70;99.90;;;;;;5128398;27;20027;-77
2023/12/09 09:39:56;;;;;;;12.05;7.40;;;8.90;99.90;;;;;;5123729;27;20134;-77
2023/12/09 09:42:25;;;;;;;13.30;7.50;;;9.00;99.90;;;;;;5132999;27;20038;-77
2023/12/09 09:45:00;;;;;;;15.13;7.53;;;9.30;99.90;;;;;;5114886;27;20026;-78
2023/12/09 09:47:28;;;;;;;10.35;7.45;;;9.50;99.90;;;;;;5133193;27;20038;-78
2023/12/09 09:49:55;;;;;;;9.45;6.50;;;9.60;99.90;;;;;;5133183;27;20019;-77
2023/12/09 09:52:22;;;;;;;9.55;5.97;;;9.70;99.90;;;;;;5132792;27;20039;-77
2023/12/09 09:54:48;;;;;;;9.57;6.22;;;9.80;99.90;;;;;;5132592;27;20074;-77
2023/12/09 09:57:15;;;;;;;14.57;7.57;;;10.00;99.90;;;;;;5133131;27;20051;-78
2023/12/09 09:59:41;;;;;;;23.55;15.55;;;10.10;99.90;;;;;;5132745;27;20081;-78
2023/12/09 10:02:10;;;;;;;11.50;7.40;;;10.10;99.90;;;;;;5132770;27;20047;-78
2023/12/09 10:04:36;;;;;;;6.55;4.57;;;10.10;99.90;;;;;;5132323;27;20081;-77
2023/12/09 10:07:04;;;;;;;6.82;3.97;;;10.00;99.90;;;;;;5131380;27;20019;-77
2023/12/09 10:09:29;;;;;;;25.95;16.25;;;10.00;99.90;;;;;;5131801;27;20031;-78
2023/12/09 10:11:55;;;;;;;14.85;9.55;;;10.00;99.90;;;;;;5122419;27;20042;-77
2023/12/09 10:14:23;;;;;;;37.10;26.58;;;10.10;99.90;;;;;;5132441;27;20035;-77
2023/12/09 10:16:49;;;;;;;10.20;5.57;;;10.20;99.90;;;;;;5113892;27;20080;-77
2023/12/09 10:19:16;;;;;;;8.52;3.67;;;10.20;99.90;;;;;;5132012;27;20332;-78
2023/12/09 10:21:42;;;;;;;5.55;4.10;;;10.20;99.90;;;;;;5112301;27;20025;-78
2023/12/09 10:24:08;;;;;;;6.30;3.80;;;10.20;99.90;;;;;;5130717;27;20023;-78
2023/12/09 10:26:33;;;;;;;9.13;3.92;;;10.10;99.90;;;;;;5132497;27;20066;-78
2023/12/09 10:29:00;;;;;;;8.68;3.78;;;10.10;99.90;;;;;;5132452;27;20028;-77
2023/12/09 10:31:27;;;;;;;9.23;4.85;;;10.20;99.90;;;;;;5132450;27;20534;-79
2023/12/09 10:33:53;;;;;;;6.70;4.30;;;10.20;99.90;;;;;;5113710;27;20030;-77
2023/12/09 10:36:19;;;;;;;9.23;4.32;;;10.30;99.90;;;;;;5132232;27;20507;-77
2023/12/09 10:38:44;;;;;;;8.77;4.78;;;10.30;99.90;;;;;;5132333;27;20023;-82
2023/12/09 10:41:13;;;;;;;6.00;4.30;;;10.30;99.90;;;;;;5132348;27;20075;-82
2023/12/09 10:43:40;;;;;;;7.55;5.03;;;10.20;99.90;;;;;;5111510;27;20501;-81
2023/12/09 10:46:07;;;;;;;8.25;4.38;;;10.30;99.90;;;;;;5117899;27;20091;-81
2023/12/09 10:48:32;;;;;;;11.13;4.05;;;10.20;99.90;;;;;;5125326;27;20072;-82
2023/12/09 10:50:58;;;;;;;13.85;5.43;;;10.20;99.90;;;;;;5110338;28;20031;-80
2023/12/09 10:53:24;;;;;;;6.75;3.67;;;10.40;99.90;;;;;;5125466;27;20043;-83
2023/12/09 10:55:51;;;;;;;8.23;4.32;;;10.40;99.90;;;;;;5124137;27;20555;-84
2023/12/09 10:58:17;;;;;;;10.27;7.28;;;10.50;99.90;;;;;;5132938;27;20446;-82
2023/12/09 11:00:45;;;;;;;6.07;4.03;;;10.60;99.90;;;;;;5118774;27;20031;-83
2023/12/09 11:03:11;;;;;;;6.55;3.85;;;10.60;99.90;;;;;;5133349;27;20031;-82
2023/12/09 11:05:45;;;;;;;14.95;4.78;;;10.70;99.90;;;;;;5132547;27;20114;-79
2023/12/09 11:08:12;;;;;;;7.55;4.05;;;10.80;99.90;;;;;;5113286;28;20031;-80
2023/12/09 11:10:38;;;;;;;8.70;4.10;;;10.90;99.90;;;;;;5130108;28;20398;-80
2023/12/09 11:13:04;;;;;;;13.35;4.55;;;11.00;99.90;;;;;;5112550;28;20084;-80
2023/12/09 11:15:32;;;;;;;6.38;4.00;;;10.90;99.90;;;;;;5113657;28;20031;-82
2023/12/09 11:18:08;;;;;;;9.02;4.28;;;11.10;99.90;;;;;;5126324;27;20036;-81
2023/12/09 11:20:40;;;;;;;12.05;4.60;;;11.20;99.90;;;;;;5117221;27;20035;-80
2023/12/09 11:23:10;;;;;;;6.25;3.80;;;11.20;99.90;;;;;;5136233;27;20485;-81
2023/12/09 11:25:39;;;;;;;9.15;4.18;;;11.20;99.90;;;;;;5135550;27;20034;-81
2023/12/09 11:28:05;;;;;;;7.55;4.22;;;11.10;99.90;;;;;;5126611;27;20478;-81
2023/12/09 11:30:35;;;;;;;10.32;4.20;;;11.10;99.90;;;;;;5116881;27;20807;-80
2023/12/09 11:33:01;;;;;;;5.95;3.63;;;11.30;99.90;;;;;;5135996;27;20079;-82
2023/12/09 11:35:28;;;;;;;7.25;4.47;;;11.40;99.90;;;;;;5117030;27;20387;-82
2023/12/09 11:37:56;;;;;;;7.15;3.83;;;11.50;99.90;;;;;;5135799;27;20076;-82
2023/12/09 11:40:22;;;;;;;6.07;3.42;;;11.60;99.90;;;;;;5135294;27;20125;-82
2023/12/09 11:42:49;;;;;;;8.50;4.38;;;11.70;99.90;;;;;;5117719;27;20055;-82
2023/12/09 11:45:15;;;;;;;6.32;3.50;;;11.80;99.90;;;;;;5135226;27;20024;-82
2023/12/09 11:47:42;;;;;;;7.25;4.35;;;11.80;99.90;;;;;;5111100;27;20028;-82
2023/12/09 11:50:08;;;;;;;9.88;4.32;;;11.90;99.90;;;;;;5110435;27;20027;-84
2023/12/09 11:52:34;;;;;;;5.00;3.67;;;11.90;99.90;;;;;;5116698;27;20045;-85
2023/12/09 11:55:10;;;;;;;6.63;4.25;;;11.90;99.90;;;;;;5129658;27;20044;-86
2023/12/09 11:57:37;;;;;;;8.90;5.13;;;11.90;99.90;;;;;;5115717;27;20023;-84
2023/12/09 12:00:11;;;;;;;7.85;3.97;;;12.10;99.90;;;;;;5133961;27;20436;-83
2023/12/09 12:02:42;;;;;;;9.27;4.60;;;12.20;99.90;;;;;;5133779;27;20054;-83
2023/12/09 12:05:09;;;;;;;7.70;4.18;;;12.30;99.90;;;;;;5133685;27;20023;-83
2023/12/09 12:07:36;;;;;;;7.70;3.45;;;12.40;99.90;;;;;;5133529;27;20091;-82
2023/12/09 12:10:02;;;;;;;6.38;4.40;;;12.50;99.90;;;;;;5133058;27;20379;-82
2023/12/09 12:12:28;;;;;;;8.75;3.97;;;12.50;99.90;;;;;;5113331;27;20059;-83
2023/12/09 12:14:54;;;;;;;7.78;3.80;;;12.60;99.90;;;;;;5133022;27;20140;-85
2023/12/09 12:17:20;;;;;;;8.50;3.50;;;12.70;99.90;;;;;;5133383;27;20021;-84
2023/12/09 12:19:45;;;;;;;8.32;4.10;;;12.80;99.90;;;;;;5128645;27;20031;-82
2023/12/09 12:22:11;;;;;;;9.10;4.50;;;13.00;99.90;;;;;;5113259;27;20023;-83
2023/12/09 12:24:44;;;;;;;7.05;4.15;;;12.90;99.90;;;;;;5126131;27;20129;-84
2023/12/09 12:27:10;;;;;;;9.95;4.13;;;13.10;99.90;;;;;;5131702;27;20019;-84
2023/12/09 12:29:39;;;;;;;7.82;4.57;;;13.20;99.90;;;;;;5132553;27;20027;-84
2023/12/09 12:32:14;;;;;;;9.02;4.55;;;13.30;99.90;;;;;;5115197;27;20019;-83
2023/12/09 12:34:45;;;;;;;11.25;3.90;;;13.40;99.90;;;;;;5133512;27;20451;-78
2023/12/09 12:37:11;;;;;;;8.82;5.40;;;13.40;99.90;;;;;;5118309;27;20027;-78
2023/12/09 12:39:37;;;;;;;11.15;4.43;;;13.40;99.90;;;;;;5119517;27;20035;-78
2023/12/09 12:42:03;;;;;;;10.82;4.93;;;13.40;99.90;;;;;;5136628;27;20123;-78
2023/12/09 12:44:29;;;;;;;7.07;4.35;;;13.50;99.90;;;;;;5119359;27;20023;-79
2023/12/09 12:46:54;;;;;;;8.80;3.90;;;13.50;99.90;;;;;;5136218;27;20044;-79